Eagle Mountain, UT (84005)

7:48 AM MST on February 09, 2016 (GMT -0700)
400 N | | Change Station
CLOSE
Current Station
Personal Weather Station
Location: Lehi, UT
Elevation: 4570 ft
Nearby Weather Stations

Elev 4570 ft 40.39 °N, 111.84 °W | Updated 2 seconds ago

Mostly Cloudy
Mostly Cloudy
13.6 °F
Feels Like 14 °F
N
0.7
Wind Variable Wind from South
Gusts 1.6 mph

Today
High -- | Low -- °F
--% Chance of Precip.
Yesterday
High -- | Low -- °F
Precip. -- in
Pressure 30.60 in
Visibility 3.0 miles
Clouds Clear
Windchill 14 °F
Dew Point 6 °F
Humidity 71%
Rainfall 0.00 in
Snow Depth Not available.
7:28 AM 5:55 PM
New Moon, 1% visible
METAR KU42 091435Z AUTO 16003KT 3SM CLR M05/M06 A3060 RMK AO1 T10491057
Pressure 30.60 in
Visibility 3.0 miles
Clouds Clear
Windchill 14 °F
Dew Point 6 °F
Humidity 71%
Rainfall 0.00 in
Snow Depth Not available.
7:28 AM 5:55 PM
New Moon, 1% visible
METAR KU42 091435Z AUTO 16003KT 3SM CLR M05/M06 A3060 RMK AO1 T10491057

10-Day Weather Forecast

Almanac

Astronomy

Feb. 09, 2016 Rise Set
Actual Time
Civil Twilight
Nautical Twilight
Astronomical Twilight
Moon
Length of Visible Light
Length of Day
Tomorrow will be .
, % of the Moon is Illuminated

Today's Extremes

State Highs State Lows

Community

WunderPhotos

Upload Photos

1,891,614 photos uploaded!

WunderBlog® & News

Nearby

Air Quality

  Air Quality AQ Index Pollutant
Not available.

Snow Depth

Station Depth Elevation

Earthquake Activity

City Distance Mag. Time & Date
Minimum magnitude displayed is 2.5.

Coastal Water Temperatures

Place Temperature

Stations

Nearby Weather Stations

Station Location Temp. Windchill Dew Point Humidity Wind Precip. Elev Updated Type
                   

Watches & Warnings

There are currently no watches in effect.